sensor_id;sensor_type;location;lat;lon;timestamp;P1;durP1;ratioP1;P2;durP2;ratioP2
20593;SDS011;10455;48.732;10.266;2023-04-09T00:00:33;23.67;;;20.93;;
20593;SDS011;10455;48.732;10.266;2023-04-09T00:05:37;24.30;;;21.00;;
20593;SDS011;10455;48.732;10.266;2023-04-09T00:10:41;23.70;;;21.20;;
20593;SDS011;10455;48.732;10.266;2023-04-09T00:15:43;24.17;;;20.83;;
20593;SDS011;10455;48.732;10.266;2023-04-09T00:20:44;23.37;;;20.87;;
20593;SDS011;10455;48.732;10.266;2023-04-09T00:25:48;24.80;;;21.23;;
20593;SDS011;10455;48.732;10.266;2023-04-09T00:30:50;22.97;;;20.57;;
20593;SDS011;10455;48.732;10.266;2023-04-09T00:35:52;24.00;;;21.40;;
20593;SDS011;10455;48.732;10.266;2023-04-09T00:40:55;24.03;;;21.53;;
20593;SDS011;10455;48.732;10.266;2023-04-09T00:45:57;25.00;;;22.03;;
20593;SDS011;10455;48.732;10.266;2023-04-09T00:51:00;27.17;;;23.40;;
20593;SDS011;10455;48.732;10.266;2023-04-09T00:56:04;25.47;;;22.73;;
20593;SDS011;10455;48.732;10.266;2023-04-09T01:01:06;24.57;;;21.27;;
20593;SDS011;10455;48.732;10.266;2023-04-09T01:06:09;23.97;;;20.70;;
20593;SDS011;10455;48.732;10.266;2023-04-09T01:11:19;23.83;;;21.10;;
20593;SDS011;10455;48.732;10.266;2023-04-09T01:16:28;27.83;;;22.50;;
20593;SDS011;10455;48.732;10.266;2023-04-09T01:21:34;25.90;;;22.30;;
20593;SDS011;10455;48.732;10.266;2023-04-09T01:26:44;25.33;;;22.43;;
20593;SDS011;10455;48.732;10.266;2023-04-09T01:31:56;27.67;;;22.07;;
20593;SDS011;10455;48.732;10.266;2023-04-09T01:36:59;28.17;;;24.07;;
20593;SDS011;10455;48.732;10.266;2023-04-09T01:42:03;27.77;;;24.40;;
20593;SDS011;10455;48.732;10.266;2023-04-09T01:47:10;27.00;;;22.67;;
20593;SDS011;10455;48.732;10.266;2023-04-09T01:52:12;29.17;;;23.83;;
20593;SDS011;10455;48.732;10.266;2023-04-09T01:57:15;26.00;;;22.73;;
20593;SDS011;10455;48.732;10.266;2023-04-09T02:02:19;32.30;;;25.00;;
20593;SDS011;10455;48.732;10.266;2023-04-09T02:07:29;25.23;;;22.53;;
20593;SDS011;10455;48.732;10.266;2023-04-09T02:12:37;28.37;;;23.90;;
20593;SDS011;10455;48.732;10.266;2023-04-09T02:17:44;30.50;;;25.53;;
20593;SDS011;10455;48.732;10.266;2023-04-09T02:22:46;29.90;;;26.00;;
20593;SDS011;10455;48.732;10.266;2023-04-09T02:27:48;29.80;;;24.67;;
20593;SDS011;10455;48.732;10.266;2023-04-09T02:32:51;27.70;;;23.93;;
20593;SDS011;10455;48.732;10.266;2023-04-09T02:37:53;28.87;;;23.63;;
20593;SDS011;10455;48.732;10.266;2023-04-09T02:42:56;28.10;;;22.80;;
20593;SDS011;10455;48.732;10.266;2023-04-09T02:47:59;27.57;;;22.47;;
20593;SDS011;10455;48.732;10.266;2023-04-09T02:53:01;27.23;;;22.53;;
20593;SDS011;10455;48.732;10.266;2023-04-09T02:58:03;27.77;;;22.53;;
20593;SDS011;10455;48.732;10.266;2023-04-09T03:03:07;31.10;;;24.13;;
20593;SDS011;10455;48.732;10.266;2023-04-09T03:08:09;35.90;;;28.17;;
20593;SDS011;10455;48.732;10.266;2023-04-09T03:13:11;31.87;;;25.57;;
20593;SDS011;10455;48.732;10.266;2023-04-09T03:18:14;37.90;;;28.43;;
20593;SDS011;10455;48.732;10.266;2023-04-09T03:23:16;36.20;;;27.37;;
20593;SDS011;10455;48.732;10.266;2023-04-09T03:28:18;45.53;;;31.03;;
20593;SDS011;10455;48.732;10.266;2023-04-09T03:33:21;35.97;;;26.93;;
20593;SDS011;10455;48.732;10.266;2023-04-09T03:38:24;39.77;;;26.37;;
20593;SDS011;10455;48.732;10.266;2023-04-09T03:43:26;39.40;;;27.27;;
20593;SDS011;10455;48.732;10.266;2023-04-09T03:48:29;48.53;;;29.23;;
20593;SDS011;10455;48.732;10.266;2023-04-09T03:53:31;42.93;;;28.73;;
20593;SDS011;10455;48.732;10.266;2023-04-09T03:58:33;47.33;;;28.10;;
20593;SDS011;10455;48.732;10.266;2023-04-09T04:03:37;41.57;;;28.13;;
20593;SDS011;10455;48.732;10.266;2023-04-09T04:08:39;44.47;;;29.40;;
20593;SDS011;10455;48.732;10.266;2023-04-09T04:13:41;38.87;;;26.20;;
20593;SDS011;10455;48.732;10.266;2023-04-09T04:18:48;43.70;;;28.33;;
20593;SDS011;10455;48.732;10.266;2023-04-09T04:29:49;53.43;;;31.73;;
20593;SDS011;10455;48.732;10.266;2023-04-09T04:40:58;55.63;;;34.07;;
20593;SDS011;10455;48.732;10.266;2023-04-09T04:46:25;61.10;;;34.77;;
20593;SDS011;10455;48.732;10.266;2023-04-09T04:58:20;79.50;;;38.87;;
20593;SDS011;10455;48.732;10.266;2023-04-09T05:03:47;128.10;;;41.80;;
20593;SDS011;10455;48.732;10.266;2023-04-09T05:08:49;151.63;;;50.13;;
20593;SDS011;10455;48.732;10.266;2023-04-09T05:13:53;100.17;;;43.10;;
20593;SDS011;10455;48.732;10.266;2023-04-09T05:18:54;168.43;;;51.80;;
20593;SDS011;10455;48.732;10.266;2023-04-09T05:23:56;68.87;;;36.07;;
20593;SDS011;10455;48.732;10.266;2023-04-09T05:29:00;114.33;;;41.43;;
20593;SDS011;10455;48.732;10.266;2023-04-09T05:34:02;237.47;;;48.37;;
20593;SDS011;10455;48.732;10.266;2023-04-09T05:39:04;124.83;;;46.43;;
20593;SDS011;10455;48.732;10.266;2023-04-09T05:44:07;60.87;;;35.30;;
20593;SDS011;10455;48.732;10.266;2023-04-09T05:49:09;63.83;;;40.20;;
20593;SDS011;10455;48.732;10.266;2023-04-09T05:54:11;51.87;;;35.33;;
20593;SDS011;10455;48.732;10.266;2023-04-09T05:59:14;48.27;;;34.57;;
20593;SDS011;10455;48.732;10.266;2023-04-09T06:04:16;42.17;;;32.10;;
20593;SDS011;10455;48.732;10.266;2023-04-09T06:09:18;35.80;;;29.63;;
20593;SDS011;10455;48.732;10.266;2023-04-09T06:14:21;39.80;;;30.53;;
20593;SDS011;10455;48.732;10.266;2023-04-09T06:19:23;35.20;;;29.07;;
20593;SDS011;10455;48.732;10.266;2023-04-09T06:24:25;30.87;;;26.97;;
20593;SDS011;10455;48.732;10.266;2023-04-09T06:29:28;30.33;;;26.47;;
20593;SDS011;10455;48.732;10.266;2023-04-09T06:34:30;27.77;;;24.87;;
20593;SDS011;10455;48.732;10.266;2023-04-09T06:39:32;28.53;;;25.37;;
20593;SDS011;10455;48.732;10.266;2023-04-09T06:44:35;27.80;;;24.93;;
20593;SDS011;10455;48.732;10.266;2023-04-09T06:49:37;27.17;;;24.30;;
20593;SDS011;10455;48.732;10.266;2023-04-09T06:54:39;28.30;;;25.40;;
20593;SDS011;10455;48.732;10.266;2023-04-09T06:59:42;26.57;;;23.77;;
20593;SDS011;10455;48.732;10.266;2023-04-09T07:04:44;28.40;;;25.40;;
20593;SDS011;10455;48.732;10.266;2023-04-09T07:09:47;29.33;;;26.13;;
20593;SDS011;10455;48.732;10.266;2023-04-09T07:14:50;32.07;;;28.10;;
20593;SDS011;10455;48.732;10.266;2023-04-09T07:19:52;28.03;;;25.13;;
20593;SDS011;10455;48.732;10.266;2023-04-09T07:24:54;27.47;;;24.47;;
20593;SDS011;10455;48.732;10.266;2023-04-09T07:29:58;25.93;;;23.30;;
20593;SDS011;10455;48.732;10.266;2023-04-09T07:35:01;23.70;;;21.30;;
20593;SDS011;10455;48.732;10.266;2023-04-09T07:40:04;25.13;;;22.73;;
20593;SDS011;10455;48.732;10.266;2023-04-09T07:45:09;23.17;;;20.87;;
20593;SDS011;10455;48.732;10.266;2023-04-09T07:50:10;22.77;;;20.57;;
20593;SDS011;10455;48.732;10.266;2023-04-09T07:55:12;23.57;;;21.30;;
20593;SDS011;10455;48.732;10.266;2023-04-09T08:00:16;22.03;;;20.03;;
20593;SDS011;10455;48.732;10.266;2023-04-09T08:05:19;22.77;;;20.50;;
20593;SDS011;10455;48.732;10.266;2023-04-09T08:10:22;22.60;;;20.33;;
20593;SDS011;10455;48.732;10.266;2023-04-09T08:15:25;22.13;;;20.10;;
20593;SDS011;10455;48.732;10.266;2023-04-09T08:20:27;18.52;;;16.92;;
20593;SDS011;10455;48.732;10.266;2023-04-09T08:25:29;19.05;;;17.33;;
20593;SDS011;10455;48.732;10.266;2023-04-09T08:30:32;19.93;;;18.03;;
20593;SDS011;10455;48.732;10.266;2023-04-09T08:35:34;19.43;;;17.63;;
20593;SDS011;10455;48.732;10.266;2023-04-09T08:40:37;17.80;;;16.20;;
20593;SDS011;10455;48.732;10.266;2023-04-09T08:45:40;17.75;;;16.15;;
20593;SDS011;10455;48.732;10.266;2023-04-09T08:50:43;18.15;;;16.45;;
20593;SDS011;10455;48.732;10.266;2023-04-09T08:55:46;16.97;;;15.53;;
20593;SDS011;10455;48.732;10.266;2023-04-09T09:00:50;16.55;;;15.05;;
20593;SDS011;10455;48.732;10.266;2023-04-09T09:05:51;16.98;;;15.45;;
20593;SDS011;10455;48.732;10.266;2023-04-09T09:10:53;16.40;;;14.90;;
20593;SDS011;10455;48.732;10.266;2023-04-09T09:21:24;12.93;;;11.82;;
20593;SDS011;10455;48.732;10.266;2023-04-09T09:26:26;13.93;;;12.82;;
20593;SDS011;10455;48.732;10.266;2023-04-09T09:31:29;13.70;;;12.50;;
20593;SDS011;10455;48.732;10.266;2023-04-09T09:36:33;13.05;;;11.95;;
20593;SDS011;10455;48.732;10.266;2023-04-09T09:41:35;12.30;;;11.30;;
20593;SDS011;10455;48.732;10.266;2023-04-09T09:46:39;10.13;;;9.25;;
20593;SDS011;10455;48.732;10.266;2023-04-09T09:51:42;11.88;;;10.98;;
20593;SDS011;10455;48.732;10.266;2023-04-09T09:56:44;10.82;;;10.02;;
20593;SDS011;10455;48.732;10.266;2023-04-09T10:01:49;10.95;;;10.05;;
20593;SDS011;10455;48.732;10.266;2023-04-09T10:06:57;10.75;;;9.85;;
20593;SDS011;10455;48.732;10.266;2023-04-09T10:12:03;8.73;;;8.02;;
20593;SDS011;10455;48.732;10.266;2023-04-09T10:17:07;9.52;;;8.82;;
20593;SDS011;10455;48.732;10.266;2023-04-09T10:22:11;11.10;;;10.20;;
20593;SDS011;10455;48.732;10.266;2023-04-09T10:27:17;10.88;;;10.07;;
20593;SDS011;10455;48.732;10.266;2023-04-09T10:32:20;9.95;;;9.15;;
20593;SDS011;10455;48.732;10.266;2023-04-09T10:37:26;10.70;;;9.90;;
20593;SDS011;10455;48.732;10.266;2023-04-09T10:42:29;13.52;;;12.43;;
20593;SDS011;10455;48.732;10.266;2023-04-09T10:47:35;12.35;;;11.35;;
20593;SDS011;10455;48.732;10.266;2023-04-09T10:52:40;12.73;;;11.68;;
20593;SDS011;10455;48.732;10.266;2023-04-09T10:57:43;12.65;;;11.65;;
20593;SDS011;10455;48.732;10.266;2023-04-09T11:02:54;12.48;;;11.48;;
20593;SDS011;10455;48.732;10.266;2023-04-09T11:08:12;11.88;;;10.98;;
20593;SDS011;10455;48.732;10.266;2023-04-09T11:13:15;13.00;;;11.90;;
20593;SDS011;10455;48.732;10.266;2023-04-09T11:18:19;12.73;;;11.63;;
20593;SDS011;10455;48.732;10.266;2023-04-09T11:23:24;12.35;;;11.35;;
20593;SDS011;10455;48.732;10.266;2023-04-09T11:28:26;12.20;;;11.10;;
20593;SDS011;10455;48.732;10.266;2023-04-09T11:33:31;12.43;;;11.43;;
20593;SDS011;10455;48.732;10.266;2023-04-09T11:38:35;13.98;;;12.80;;
20593;SDS011;10455;48.732;10.266;2023-04-09T11:43:37;14.73;;;13.38;;
20593;SDS011;10455;48.732;10.266;2023-04-09T11:48:39;15.40;;;14.10;;
20593;SDS011;10455;48.732;10.266;2023-04-09T11:53:42;15.52;;;14.18;;
20593;SDS011;10455;48.732;10.266;2023-04-09T11:58:44;15.18;;;13.77;;
20593;SDS011;10455;48.732;10.266;2023-04-09T12:03:50;15.35;;;14.02;;
20593;SDS011;10455;48.732;10.266;2023-04-09T12:08:55;15.02;;;13.73;;
20593;SDS011;10455;48.732;10.266;2023-04-09T12:13:58;13.98;;;12.70;;
20593;SDS011;10455;48.732;10.266;2023-04-09T12:19:01;14.38;;;13.07;;
20593;SDS011;10455;48.732;10.266;2023-04-09T12:24:04;13.32;;;12.13;;
20593;SDS011;10455;48.732;10.266;2023-04-09T12:29:06;14.77;;;13.48;;
20593;SDS011;10455;48.732;10.266;2023-04-09T12:34:08;13.13;;;12.02;;
20593;SDS011;10455;48.732;10.266;2023-04-09T12:39:12;9.40;;;8.60;;
20593;SDS011;10455;48.732;10.266;2023-04-09T12:44:14;8.07;;;7.43;;
20593;SDS011;10455;48.732;10.266;2023-04-09T12:49:16;8.57;;;7.82;;
20593;SDS011;10455;48.732;10.266;2023-04-09T12:54:20;7.80;;;7.20;;
20593;SDS011;10455;48.732;10.266;2023-04-09T12:59:22;8.13;;;7.45;;
20593;SDS011;10455;48.732;10.266;2023-04-09T13:04:24;9.30;;;8.57;;
20593;SDS011;10455;48.732;10.266;2023-04-09T13:09:27;12.57;;;11.48;;
20593;SDS011;10455;48.732;10.266;2023-04-09T13:14:29;12.10;;;11.10;;
20593;SDS011;10455;48.732;10.266;2023-04-09T13:19:31;11.30;;;10.30;;
20593;SDS011;10455;48.732;10.266;2023-04-09T13:24:34;9.98;;;9.10;;
20593;SDS011;10455;48.732;10.266;2023-04-09T13:29:36;8.93;;;8.33;;
20593;SDS011;10455;48.732;10.266;2023-04-09T13:34:39;8.00;;;7.40;;
20593;SDS011;10455;48.732;10.266;2023-04-09T13:39:42;9.63;;;8.82;;
20593;SDS011;10455;48.732;10.266;2023-04-09T13:44:44;9.52;;;8.73;;
20593;SDS011;10455;48.732;10.266;2023-04-09T13:49:46;10.77;;;9.88;;
20593;SDS011;10455;48.732;10.266;2023-04-09T13:54:51;10.20;;;9.38;;
20593;SDS011;10455;48.732;10.266;2023-04-09T13:59:53;10.43;;;9.52;;
20593;SDS011;10455;48.732;10.266;2023-04-09T14:04:55;11.50;;;10.50;;
20593;SDS011;10455;48.732;10.266;2023-04-09T14:09:59;10.48;;;9.57;;
20593;SDS011;10455;48.732;10.266;2023-04-09T14:15:00;10.30;;;9.50;;
20593;SDS011;10455;48.732;10.266;2023-04-09T14:20:03;10.48;;;9.57;;
20593;SDS011;10455;48.732;10.266;2023-04-09T14:25:07;11.18;;;10.18;;
20593;SDS011;10455;48.732;10.266;2023-04-09T14:30:10;10.82;;;9.93;;
20593;SDS011;10455;48.732;10.266;2023-04-09T14:35:12;9.82;;;9.02;;
20593;SDS011;10455;48.732;10.266;2023-04-09T14:40:16;10.38;;;9.57;;
20593;SDS011;10455;48.732;10.266;2023-04-09T14:45:18;11.32;;;10.32;;
20593;SDS011;10455;48.732;10.266;2023-04-09T14:50:20;10.98;;;10.05;;
20593;SDS011;10455;48.732;10.266;2023-04-09T14:55:23;11.32;;;10.23;;
20593;SDS011;10455;48.732;10.266;2023-04-09T15:00:25;11.27;;;10.27;;
20593;SDS011;10455;48.732;10.266;2023-04-09T15:05:27;14.70;;;13.50;;
20593;SDS011;10455;48.732;10.266;2023-04-09T15:10:31;15.07;;;13.68;;
20593;SDS011;10455;48.732;10.266;2023-04-09T15:15:32;19.08;;;17.27;;
20593;SDS011;10455;48.732;10.266;2023-04-09T15:20:35;16.93;;;15.40;;
20593;SDS011;10455;48.732;10.266;2023-04-09T15:25:38;17.80;;;16.08;;
20593;SDS011;10455;48.732;10.266;2023-04-09T15:30:40;24.10;;;22.10;;
20593;SDS011;10455;48.732;10.266;2023-04-09T15:35:42;11.05;;;10.05;;
20593;SDS011;10455;48.732;10.266;2023-04-09T15:40:45;13.60;;;12.40;;
20593;SDS011;10455;48.732;10.266;2023-04-09T15:45:48;12.70;;;11.60;;
20593;SDS011;10455;48.732;10.266;2023-04-09T15:50:50;19.23;;;17.55;;
20593;SDS011;10455;48.732;10.266;2023-04-09T15:55:53;13.73;;;12.52;;
20593;SDS011;10455;48.732;10.266;2023-04-09T16:00:56;16.08;;;14.52;;
20593;SDS011;10455;48.732;10.266;2023-04-09T16:05:58;17.02;;;15.32;;
20593;SDS011;10455;48.732;10.266;2023-04-09T16:11:04;16.40;;;14.73;;
20593;SDS011;10455;48.732;10.266;2023-04-09T16:16:07;16.33;;;14.73;;
20593;SDS011;10455;48.732;10.266;2023-04-09T16:21:09;15.80;;;14.23;;
20593;SDS011;10455;48.732;10.266;2023-04-09T16:26:13;16.80;;;15.30;;
20593;SDS011;10455;48.732;10.266;2023-04-09T16:31:15;15.23;;;13.80;;
20593;SDS011;10455;48.732;10.266;2023-04-09T16:36:17;13.60;;;12.30;;
20593;SDS011;10455;48.732;10.266;2023-04-09T16:41:20;14.00;;;12.70;;
20593;SDS011;10455;48.732;10.266;2023-04-09T16:46:22;15.83;;;14.23;;
20593;SDS011;10455;48.732;10.266;2023-04-09T16:51:24;14.73;;;13.33;;
20593;SDS011;10455;48.732;10.266;2023-04-09T16:56:27;17.10;;;15.40;;
20593;SDS011;10455;48.732;10.266;2023-04-09T17:01:29;14.90;;;13.43;;
20593;SDS011;10455;48.732;10.266;2023-04-09T17:06:31;14.27;;;12.83;;
20593;SDS011;10455;48.732;10.266;2023-04-09T17:11:34;14.47;;;13.07;;
20593;SDS011;10455;48.732;10.266;2023-04-09T17:16:37;13.97;;;12.67;;
20593;SDS011;10455;48.732;10.266;2023-04-09T17:21:39;13.13;;;11.83;;
20593;SDS011;10455;48.732;10.266;2023-04-09T17:26:42;14.17;;;12.87;;
20593;SDS011;10455;48.732;10.266;2023-04-09T17:31:44;14.10;;;12.70;;
20593;SDS011;10455;48.732;10.266;2023-04-09T17:36:47;15.07;;;13.50;;
20593;SDS011;10455;48.732;10.266;2023-04-09T17:41:56;14.37;;;12.87;;
20593;SDS011;10455;48.732;10.266;2023-04-09T17:46:59;15.87;;;14.30;;
20593;SDS011;10455;48.732;10.266;2023-04-09T17:52:02;14.67;;;13.27;;
20593;SDS011;10455;48.732;10.266;2023-04-09T17:57:06;15.23;;;13.73;;
20593;SDS011;10455;48.732;10.266;2023-04-09T18:02:08;13.90;;;12.50;;
20593;SDS011;10455;48.732;10.266;2023-04-09T18:07:10;15.00;;;13.50;;
20593;SDS011;10455;48.732;10.266;2023-04-09T18:12:14;14.17;;;12.77;;
20593;SDS011;10455;48.732;10.266;2023-04-09T18:17:16;16.30;;;14.70;;
20593;SDS011;10455;48.732;10.266;2023-04-09T18:22:18;16.13;;;14.47;;
20593;SDS011;10455;48.732;10.266;2023-04-09T18:27:21;15.73;;;14.03;;
20593;SDS011;10455;48.732;10.266;2023-04-09T18:32:23;15.33;;;13.73;;
20593;SDS011;10455;48.732;10.266;2023-04-09T18:37:25;15.33;;;13.73;;
20593;SDS011;10455;48.732;10.266;2023-04-09T18:42:29;16.13;;;14.43;;
20593;SDS011;10455;48.732;10.266;2023-04-09T18:47:31;17.93;;;15.53;;
20593;SDS011;10455;48.732;10.266;2023-04-09T18:52:33;16.87;;;15.13;;
20593;SDS011;10455;48.732;10.266;2023-04-09T18:57:38;17.30;;;15.40;;
20593;SDS011;10455;48.732;10.266;2023-04-09T19:02:42;18.40;;;15.67;;
20593;SDS011;10455;48.732;10.266;2023-04-09T19:07:44;16.77;;;15.07;;
20593;SDS011;10455;48.732;10.266;2023-04-09T19:12:47;20.80;;;15.50;;
20593;SDS011;10455;48.732;10.266;2023-04-09T19:17:52;17.97;;;15.47;;
20593;SDS011;10455;48.732;10.266;2023-04-09T19:22:54;18.13;;;15.23;;
20593;SDS011;10455;48.732;10.266;2023-04-09T19:27:58;17.30;;;15.50;;
20593;SDS011;10455;48.732;10.266;2023-04-09T19:33:00;18.83;;;16.67;;
20593;SDS011;10455;48.732;10.266;2023-04-09T19:38:02;17.30;;;15.50;;
20593;SDS011;10455;48.732;10.266;2023-04-09T19:43:06;18.70;;;16.70;;
20593;SDS011;10455;48.732;10.266;2023-04-09T19:48:08;18.20;;;16.20;;
20593;SDS011;10455;48.732;10.266;2023-04-09T19:53:09;20.17;;;18.27;;
20593;SDS011;10455;48.732;10.266;2023-04-09T19:58:13;18.67;;;16.23;;
20593;SDS011;10455;48.732;10.266;2023-04-09T20:03:15;17.90;;;16.03;;
20593;SDS011;10455;48.732;10.266;2023-04-09T20:08:18;20.00;;;17.40;;
20593;SDS011;10455;48.732;10.266;2023-04-09T20:13:21;18.20;;;16.30;;
20593;SDS011;10455;48.732;10.266;2023-04-09T20:18:24;18.83;;;16.83;;
20593;SDS011;10455;48.732;10.266;2023-04-09T20:23:26;18.47;;;16.47;;
20593;SDS011;10455;48.732;10.266;2023-04-09T20:28:30;18.13;;;15.57;;
20593;SDS011;10455;48.732;10.266;2023-04-09T20:33:34;19.27;;;16.97;;
20593;SDS011;10455;48.732;10.266;2023-04-09T20:38:36;20.63;;;17.37;;
20593;SDS011;10455;48.732;10.266;2023-04-09T20:43:39;20.43;;;18.10;;
20593;SDS011;10455;48.732;10.266;2023-04-09T20:48:41;23.40;;;18.57;;
20593;SDS011;10455;48.732;10.266;2023-04-09T20:53:43;20.33;;;17.57;;
20593;SDS011;10455;48.732;10.266;2023-04-09T20:58:47;20.40;;;17.87;;
20593;SDS011;10455;48.732;10.266;2023-04-09T21:03:49;20.70;;;17.97;;
20593;SDS011;10455;48.732;10.266;2023-04-09T21:08:51;23.07;;;18.70;;
20593;SDS011;10455;48.732;10.266;2023-04-09T21:13:56;22.90;;;18.93;;
20593;SDS011;10455;48.732;10.266;2023-04-09T21:18:58;23.23;;;19.63;;
20593;SDS011;10455;48.732;10.266;2023-04-09T21:24:05;22.87;;;18.30;;
20593;SDS011;10455;48.732;10.266;2023-04-09T21:29:09;23.50;;;19.73;;
20593;SDS011;10455;48.732;10.266;2023-04-09T21:34:11;20.40;;;17.63;;
20593;SDS011;10455;48.732;10.266;2023-04-09T21:39:13;20.73;;;17.70;;
20593;SDS011;10455;48.732;10.266;2023-04-09T21:44:16;21.03;;;18.13;;
20593;SDS011;10455;48.732;10.266;2023-04-09T21:49:18;20.90;;;17.97;;
20593;SDS011;10455;48.732;10.266;2023-04-09T21:54:21;22.30;;;19.20;;
20593;SDS011;10455;48.732;10.266;2023-04-09T21:59:24;23.80;;;17.90;;
20593;SDS011;10455;48.732;10.266;2023-04-09T22:04:26;23.80;;;19.33;;
20593;SDS011;10455;48.732;10.266;2023-04-09T22:09:28;22.27;;;19.40;;
20593;SDS011;10455;48.732;10.266;2023-04-09T22:14:43;22.00;;;18.93;;
20593;SDS011;10455;48.732;10.266;2023-04-09T22:19:46;21.43;;;18.50;;
20593;SDS011;10455;48.732;10.266;2023-04-09T22:24:50;23.63;;;20.10;;
20593;SDS011;10455;48.732;10.266;2023-04-09T22:29:54;23.37;;;18.57;;
20593;SDS011;10455;48.732;10.266;2023-04-09T22:34:56;21.83;;;18.77;;
20593;SDS011;10455;48.732;10.266;2023-04-09T22:39:58;20.67;;;17.97;;
20593;SDS011;10455;48.732;10.266;2023-04-09T22:45:02;21.40;;;17.50;;
20593;SDS011;10455;48.732;10.266;2023-04-09T22:50:05;20.93;;;16.87;;
20593;SDS011;10455;48.732;10.266;2023-04-09T22:55:08;20.47;;;17.20;;
20593;SDS011;10455;48.732;10.266;2023-04-09T23:00:14;27.37;;;22.33;;
20593;SDS011;10455;48.732;10.266;2023-04-09T23:05:17;31.03;;;25.87;;
20593;SDS011;10455;48.732;10.266;2023-04-09T23:10:19;34.40;;;24.80;;
20593;SDS011;10455;48.732;10.266;2023-04-09T23:15:22;24.83;;;20.20;;
20593;SDS011;10455;48.732;10.266;2023-04-09T23:20:24;23.40;;;20.10;;
20593;SDS011;10455;48.732;10.266;2023-04-09T23:25:26;22.93;;;18.90;;
20593;SDS011;10455;48.732;10.266;2023-04-09T23:30:30;22.50;;;18.47;;
20593;SDS011;10455;48.732;10.266;2023-04-09T23:35:32;24.50;;;19.63;;
20593;SDS011;10455;48.732;10.266;2023-04-09T23:40:34;58.23;;;34.73;;
20593;SDS011;10455;48.732;10.266;2023-04-09T23:45:37;49.57;;;29.33;;
20593;SDS011;10455;48.732;10.266;2023-04-09T23:56:40;32.77;;;24.30;;
